Benvolgut visitant, si us plau, ingressa Recuperar contrasenya
AVAMET paisatges
Union Alcoyana

Inforatge Favara

Dades diàries. Acumulats / Últims 30 dies disponibles

Data Temperatura (°C) Humitat rel. (%) Pressió rel. (hPa) Vent (km/h) Precipitació
Mínima Mitjana Màxima Amplitud
tèrmica
Mínima Mitjana Màxima Mínima Mitjana Màxima Predom. Mitjana Ràfega
màxima
Total
(mm)
Índex-n
Mínima Mitjana Màxima Mínima Mitjana Màxima n
0 a 1
P0 max
mm 5'
Dades mensuals acumulades fins l'últim dia disponible
05/2022 12,4 14,6 17,7 19,0 16,2 23,2 28,3 15,9 48 79 97 1.012 1.021 1.027   4,7 32,2 62,6
Dades anuals acumulades fins l'últim dia disponible
2022 1,4 10,1 17,7 14,1 10,7 18,3 28,3 26,9 18 77 99 1.000 1.023 1.038   5,0 62,8 415,4
Últims 30 dies disponibles
18-05-2022 17,7     21,8     26,6 8,9 66 83 93 1.020 1.021 1.022 ENE 4,0 22,5 0,0
17-05-2022 16,7     22,3     28,3 11,6 61 80 93 1.018 1.021 1.022 ENE 5,3 27,4 0,0
16-05-2022 16,1     21,8     26,5 10,4 63 81 95 1.019 1.021 1.023 ENE 4,7 27,4 0,0
15-05-2022 15,2     20,6     25,1 9,9 56 81 94 1.017 1.019 1.021 ENE 4,5 27,4 0,0
14-05-2022 15,4     20,1     23,6 8,2 66 79 90 1.018 1.021 1.024 ENE 4,3 29,0 0,0
13-05-2022 14,3     19,1     22,6 8,3 60 81 92 1.022 1.024 1.025 ENE 4,2 27,4 0,0
12-05-2022 16,3     19,1     22,2 5,9 70 82 88 1.023 1.024 1.025 ENE 4,3 19,3 0,0
11-05-2022 14,2     20,3     25,8 11,6 51 72 88 1.020 1.023 1.025 ENE 6,4 29,0 0,0
10-05-2022 13,2     19,6     24,8 11,6 56 76 94 1.023 1.025 1.027 E 5,1 27,4 0,0
09-05-2022 15,3     19,1     23,9 8,6 59 77 86 1.023 1.024 1.026 SW 5,1 29,0 0,0
08-05-2022 14,2     19,0     25,4 11,2 52 76 87 1.019 1.021 1.023 ENE 5,0 24,1 0,0
07-05-2022 13,0     18,4     23,2 10,2 50 70 86 1.020 1.022 1.024 ENE 4,0 24,1 0,0
06-05-2022 12,4     18,2     22,8 10,4 49 68 89 1.021 1.023 1.024 ENE 4,2 24,1 0,0
05-05-2022 14,6     18,3     22,3 7,7 48 68 86 1.020 1.022 1.024 SW 5,6 29,0 0,0
04-05-2022 13,6     15,1     16,2 2,6 81 92 97 1.016 1.019 1.021 SW 5,1 32,2 28,0 0,54 2,00
03-05-2022 13,5     14,9     16,6 3,1 87 93 95 1.012 1.014 1.017 WSW 5,3 25,7 21,6 0,70 1,70
02-05-2022 12,7     16,1     19,2 6,5 78 87 95 1.013 1.016 1.019 ENE 2,6 24,1 13,0 0,38 1,00
01-05-2022 13,7     18,3     21,6 7,9 63 79 91 1.018 1.020 1.022 ENE 4,7 29,0 0,0
30-04-2022 12,1     19,9     28,1 16,0 39 66 90 1.020 1.023 1.026 S 3,4 29,0 0,0
29-04-2022 12,3     17,4     22,1 9,8 59 76 90 1.025 1.026 1.028 SW 3,1 27,4 0,0
28-04-2022 13,4     15,2     17,4 4,0 76 90 96 1.020 1.022 1.026 SW 1,8 17,7 10,0 0,37 0,60
27-04-2022 12,4     15,4     18,3 5,9 76 84 93 1.017 1.019 1.021 SW 1,4 17,7 0,8
26-04-2022 13,1     16,2     19,5 6,4 64 82 93 1.016 1.017 1.018 ENE 4,3 22,5 0,0
25-04-2022 11,1     17,2     21,2 10,1 42 68 85 1.014 1.015 1.016 ENE 4,8 22,5 0,0
24-04-2022 15,2     19,3     25,9 10,7 30 49 64 1.011 1.012 1.014 SW 10,6 51,5 0,0
23-04-2022 12,2     16,7     20,1 7,9 40 54 81 1.000 1.005 1.011 SW 13,8 62,8 0,2
22-04-2022 14,1     17,9     21,4 7,3 46 56 76 1.001 1.005 1.008 SW 6,1 30,6 0,0
21-04-2022 10,3     15,1     20,1 9,8 50 70 93 1.006 1.007 1.009 W 5,8 29,0 0,0
20-04-2022 9,7     12,2     15,2 5,5 82 90 97 1.001 1.005 1.010 SW 4,5 41,8 33,2 0,86 2,00
19-04-2022 14,2     16,4     19,0 4,8 76 86 93 1.010 1.013 1.017 ENE 3,5 17,7 0,4
Últims 13 mesos disponibles
04/2022 5,4 12,2 17,3 15,9 11,7 20,0 28,1 22,7 42 71 95 1.005 1.016 1.026 SW 6,3 62,8 99,4
03/2022 5,9 10,8 14,4 13,3 10,9 16,0 23,4 17,5 58 86 97 1.005 1.021 1.028 ENE 6,4 51,5 231,0
02/2022 5,7 9,0 14,0 13,4 13,7 18,1 24,2 18,5 42 75 89 1.019 1.027 1.034 SW 3,6 38,6 4,0
01/2022 1,4 6,0 14,0 10,7 10,7 16,3 23,6 22,2 38 75 92 1.016 1.029 1.036 SW 3,7 62,8 18,4
12/2021 6,3 11,8 19,1 14,8 12,8 18,3 23,2 16,9 48 71 94 1.011 1.022 1.032 SW 7,7 74,0 3,2
11/2021 7,1 11,2 20,6 14,8 13,4 18,9 26,9 19,8 45 69 95 1.007 1.018 1.030 SW 5,7 93,3 82,0
10/2021 12,3 15,8 20,8 20,1 20,8 24,7 30,6 18,3 51 81 95 1.011 1.021 1.028 ENE 3,1 56,3 184,2
09/2021 15,6 20,6 24,2 24,4 21,7 28,4 32,4 16,8 63 82 91 1.015 1.019 1.026 ENE 4,0 51,5 150,4
08/2021 20,3 22,7 26,2 26,4 27,4 30,5 37,1 16,8 63 80 90 1.009 1.017 1.023 ENE 4,3 45,1 16,0
07/2021 18,6 22,3 25,1 26,3 26,2 30,6 41,2 22,6 57 77 90 1.011 1.017 1.024 ENE 5,7 43,5 56,2
06/2021 16,7 20,0 22,5 23,6 21,4 27,3 32,7 16,0 55 74 87 1.012 1.019 1.025 ENE 4,5 37,0 13,0
05/2021 12,2 16,1 24,2 20,2 17,7 24,9 35,4 23,2 38 70 89 1.012 1.019 1.026 ENE 6,0 48,3 33,4
04/2021 6,7 11,4 14,6 14,9 13,8 18,8 27,8 21,1 63 78 90 1.008 1.018 1.027 ENE 3,8 35,4 78,6
Tots els anys disponibles
2021 -0,2 15,1 26,2 18,9 7,5 22,9 41,2 41,4 35 74 95 1.005 1.020 1.037 ENE 5,2 93,3 765,0
2020 1,7 15,2 25,3 19,3 11,2 23,6 35,0 33,3 39 72 95 1.000 1.020 1.035 E 5,3 99,8 857,0
2019 -0,2 14,6 26,3 19,0 12,4 23,4 39,8 40,0 32 68 93 998 1.020 1.037 S 5,5 95,0 609,2
Temperatura (°C)
Humitat relativa (%)
Velocitat del vent i ràfega màxima (km/h)
Direcció del vent (°)
Pressió (hPa)
Precipitació (mm)
Nota sobre les dades: s'avisa a l'usuari de la provisionalitat i no oficialitat d'aquestes dades
Logo AVAMET blanc
Web allotjada a Sollutia
Llicència de Creative CommonsLa web d'AVAMET i els seus continguts estan subjectes a una llicència de
Reconeixement - No Comercial - Compartir igual
Avís legal - Política de privacitat - Política de cookies
NOVES ESTACIONS: Sant Mateu - IES Maestrat (Soci)  / el Palomar (Ajuntament/Soci) / Atzeneta del Maestrat - Pla de Meanes (Ajuntament/Soci) / Onda - Sant Gil (Soci) / Onda - Ràtils CR Cota 220 (Soci) / la Vila Joiosa (Ajuntament/Soci) / Miramar - Platja (Ajuntament/Soci) / Massanassa - IES Massanassa (Soci) / Culla - Pla de les Vinyes (Ajuntament/Soci) / Oliva - Col·legi - El Rebollet / Villena - Hondo de Carboneras (Soci) / Ontinyent - les Aigües (Soci) / Castelló de la Plana - IES Bovalar (Soci) /  Villena - las Quebradas (Soci) / la Salzadella (Ajuntament/Soci)  - - -